sensor_id;sensor_type;location;lat;lon;timestamp;temperature;humidity
13850;DHT22;6995;52.618;13.488;2023-11-21T00:00:14;7.50;1.00
13850;DHT22;6995;52.618;13.488;2023-11-21T00:02:41;7.40;1.00
13850;DHT22;6995;52.618;13.488;2023-11-21T00:05:11;7.40;1.00
13850;DHT22;6995;52.618;13.488;2023-11-21T00:07:40;7.40;1.00
13850;DHT22;6995;52.618;13.488;2023-11-21T00:10:06;7.40;1.00
13850;DHT22;6995;52.618;13.488;2023-11-21T00:12:34;7.40;1.00
13850;DHT22;6995;52.618;13.488;2023-11-21T00:15:00;7.30;1.00
13850;DHT22;6995;52.618;13.488;2023-11-21T00:17:27;7.30;1.00
13850;DHT22;6995;52.618;13.488;2023-11-21T00:19:52;7.30;1.00
13850;DHT22;6995;52.618;13.488;2023-11-21T00:22:18;7.30;1.00
13850;DHT22;6995;52.618;13.488;2023-11-21T00:24:44;7.30;1.00
13850;DHT22;6995;52.618;13.488;2023-11-21T00:27:10;7.30;1.00
13850;DHT22;6995;52.618;13.488;2023-11-21T00:29:35;7.20;1.00
13850;DHT22;6995;52.618;13.488;2023-11-21T00:32:01;7.20;1.00
13850;DHT22;6995;52.618;13.488;2023-11-21T00:34:27;7.20;1.00
13850;DHT22;6995;52.618;13.488;2023-11-21T00:36:53;7.10;1.00
13850;DHT22;6995;52.618;13.488;2023-11-21T00:39:18;7.00;1.00
13850;DHT22;6995;52.618;13.488;2023-11-21T00:41:44;7.00;1.00
13850;DHT22;6995;52.618;13.488;2023-11-21T00:44:13;7.00;1.00
13850;DHT22;6995;52.618;13.488;2023-11-21T00:46:39;6.90;1.00
13850;DHT22;6995;52.618;13.488;2023-11-21T00:49:05;7.00;1.00
13850;DHT22;6995;52.618;13.488;2023-11-21T00:51:30;6.90;1.00
13850;DHT22;6995;52.618;13.488;2023-11-21T00:53:56;6.90;1.00
13850;DHT22;6995;52.618;13.488;2023-11-21T00:56:22;6.90;1.00
13850;DHT22;6995;52.618;13.488;2023-11-21T00:58:47;6.90;1.00
13850;DHT22;6995;52.618;13.488;2023-11-21T01:01:18;6.90;1.00
13850;DHT22;6995;52.618;13.488;2023-11-21T01:03:44;6.90;1.00
13850;DHT22;6995;52.618;13.488;2023-11-21T01:06:11;7.00;1.00
13850;DHT22;6995;52.618;13.488;2023-11-21T01:08:37;7.00;1.00
13850;DHT22;6995;52.618;13.488;2023-11-21T01:11:03;7.00;1.00
13850;DHT22;6995;52.618;13.488;2023-11-21T01:13:30;6.90;1.00
13850;DHT22;6995;52.618;13.488;2023-11-21T01:15:56;6.80;1.00
13850;DHT22;6995;52.618;13.488;2023-11-21T01:18:22;6.90;1.00
13850;DHT22;6995;52.618;13.488;2023-11-21T01:20:47;6.80;1.00
13850;DHT22;6995;52.618;13.488;2023-11-21T01:23:13;6.70;1.00
13850;DHT22;6995;52.618;13.488;2023-11-21T01:25:39;6.70;1.00
13850;DHT22;6995;52.618;13.488;2023-11-21T01:28:05;6.70;1.00
13850;DHT22;6995;52.618;13.488;2023-11-21T01:30:31;6.70;1.00
13850;DHT22;6995;52.618;13.488;2023-11-21T01:32:58;6.70;1.00
13850;DHT22;6995;52.618;13.488;2023-11-21T01:35:24;6.70;1.00
13850;DHT22;6995;52.618;13.488;2023-11-21T01:37:49;6.80;1.00
13850;DHT22;6995;52.618;13.488;2023-11-21T01:40:15;6.90;1.00
13850;DHT22;6995;52.618;13.488;2023-11-21T01:42:42;6.90;1.00
13850;DHT22;6995;52.618;13.488;2023-11-21T01:45:12;6.70;99.90
13850;DHT22;6995;52.618;13.488;2023-11-21T01:47:39;6.70;99.90
13850;DHT22;6995;52.618;13.488;2023-11-21T01:50:07;6.60;99.90
13850;DHT22;6995;52.618;13.488;2023-11-21T01:52:35;6.60;1.00
13850;DHT22;6995;52.618;13.488;2023-11-21T01:55:01;6.70;1.00
13850;DHT22;6995;52.618;13.488;2023-11-21T01:57:26;6.80;1.00
13850;DHT22;6995;52.618;13.488;2023-11-21T01:59:54;6.70;1.00
13850;DHT22;6995;52.618;13.488;2023-11-21T02:02:20;6.70;99.90
13850;DHT22;6995;52.618;13.488;2023-11-21T02:04:46;6.70;99.90
13850;DHT22;6995;52.618;13.488;2023-11-21T02:07:11;6.70;99.90
13850;DHT22;6995;52.618;13.488;2023-11-21T02:09:37;6.60;1.00
13850;DHT22;6995;52.618;13.488;2023-11-21T02:12:08;6.60;1.00
13850;DHT22;6995;52.618;13.488;2023-11-21T02:14:36;6.60;1.00
13850;DHT22;6995;52.618;13.488;2023-11-21T02:17:02;6.60;1.00
13850;DHT22;6995;52.618;13.488;2023-11-21T02:19:29;6.60;1.00
13850;DHT22;6995;52.618;13.488;2023-11-21T02:21:57;6.70;1.00
13850;DHT22;6995;52.618;13.488;2023-11-21T02:24:31;6.70;1.00
13850;DHT22;6995;52.618;13.488;2023-11-21T02:26:57;6.70;1.00
13850;DHT22;6995;52.618;13.488;2023-11-21T02:29:23;6.60;99.90
13850;DHT22;6995;52.618;13.488;2023-11-21T02:31:54;6.70;1.00
13850;DHT22;6995;52.618;13.488;2023-11-21T02:34:20;6.70;1.00
13850;DHT22;6995;52.618;13.488;2023-11-21T02:36:47;6.70;1.00
13850;DHT22;6995;52.618;13.488;2023-11-21T02:39:15;6.80;1.00
13850;DHT22;6995;52.618;13.488;2023-11-21T02:41:42;6.70;99.90
13850;DHT22;6995;52.618;13.488;2023-11-21T02:44:08;6.70;99.90
13850;DHT22;6995;52.618;13.488;2023-11-21T02:46:34;6.70;99.90
13850;DHT22;6995;52.618;13.488;2023-11-21T02:49:03;6.70;99.90
13850;DHT22;6995;52.618;13.488;2023-11-21T02:51:31;6.70;99.90
13850;DHT22;6995;52.618;13.488;2023-11-21T02:53:57;6.70;99.90
13850;DHT22;6995;52.618;13.488;2023-11-21T02:56:28;6.70;99.90
13850;DHT22;6995;52.618;13.488;2023-11-21T02:58:57;6.70;99.90
13850;DHT22;6995;52.618;13.488;2023-11-21T03:01:23;6.60;99.90
13850;DHT22;6995;52.618;13.488;2023-11-21T03:03:51;6.60;99.90
13850;DHT22;6995;52.618;13.488;2023-11-21T03:06:18;6.60;99.90
13850;DHT22;6995;52.618;13.488;2023-11-21T03:08:44;6.60;99.90
13850;DHT22;6995;52.618;13.488;2023-11-21T03:11:10;6.60;99.90
13850;DHT22;6995;52.618;13.488;2023-11-21T03:13:35;6.60;99.90
13850;DHT22;6995;52.618;13.488;2023-11-21T03:16:01;6.60;99.90
13850;DHT22;6995;52.618;13.488;2023-11-21T03:18:26;6.60;99.90
13850;DHT22;6995;52.618;13.488;2023-11-21T03:20:54;6.60;99.90
13850;DHT22;6995;52.618;13.488;2023-11-21T03:23:20;6.60;99.90
13850;DHT22;6995;52.618;13.488;2023-11-21T03:25:45;6.50;99.90
13850;DHT22;6995;52.618;13.488;2023-11-21T03:28:11;6.50;99.90
13850;DHT22;6995;52.618;13.488;2023-11-21T03:30:37;6.60;99.90
13850;DHT22;6995;52.618;13.488;2023-11-21T03:33:02;6.50;99.90
13850;DHT22;6995;52.618;13.488;2023-11-21T03:35:28;6.40;99.90
13850;DHT22;6995;52.618;13.488;2023-11-21T03:37:54;6.40;99.90
13850;DHT22;6995;52.618;13.488;2023-11-21T03:40:19;6.40;31.70
13850;DHT22;6995;52.618;13.488;2023-11-21T03:42:47;6.40;1.00
13850;DHT22;6995;52.618;13.488;2023-11-21T03:45:12;6.30;1.00
13850;DHT22;6995;52.618;13.488;2023-11-21T03:47:42;6.20;1.00
13850;DHT22;6995;52.618;13.488;2023-11-21T03:50:08;6.20;1.00
13850;DHT22;6995;52.618;13.488;2023-11-21T03:52:37;6.10;1.00
13850;DHT22;6995;52.618;13.488;2023-11-21T03:55:03;6.10;1.00
13850;DHT22;6995;52.618;13.488;2023-11-21T03:57:29;6.10;1.00
13850;DHT22;6995;52.618;13.488;2023-11-21T03:59:55;6.00;1.00
13850;DHT22;6995;52.618;13.488;2023-11-21T04:02:20;6.10;1.00
13850;DHT22;6995;52.618;13.488;2023-11-21T04:04:46;6.10;1.00
13850;DHT22;6995;52.618;13.488;2023-11-21T04:07:12;6.20;1.00
13850;DHT22;6995;52.618;13.488;2023-11-21T04:09:39;6.10;1.00
13850;DHT22;6995;52.618;13.488;2023-11-21T04:12:05;6.20;1.00
13850;DHT22;6995;52.618;13.488;2023-11-21T04:14:32;6.10;1.00
13850;DHT22;6995;52.618;13.488;2023-11-21T04:16:58;6.20;1.00
13850;DHT22;6995;52.618;13.488;2023-11-21T04:19:24;6.20;1.00
13850;DHT22;6995;52.618;13.488;2023-11-21T04:21:49;6.20;1.00
13850;DHT22;6995;52.618;13.488;2023-11-21T04:24:15;6.10;1.00
13850;DHT22;6995;52.618;13.488;2023-11-21T04:26:41;6.20;1.00
13850;DHT22;6995;52.618;13.488;2023-11-21T04:29:07;6.20;1.00
13850;DHT22;6995;52.618;13.488;2023-11-21T04:31:32;6.20;1.00
13850;DHT22;6995;52.618;13.488;2023-11-21T04:33:58;6.30;1.00
13850;DHT22;6995;52.618;13.488;2023-11-21T04:36:24;6.20;1.00
13850;DHT22;6995;52.618;13.488;2023-11-21T04:38:49;6.20;1.00
13850;DHT22;6995;52.618;13.488;2023-11-21T04:41:15;6.30;1.00
13850;DHT22;6995;52.618;13.488;2023-11-21T04:43:40;6.20;1.00
13850;DHT22;6995;52.618;13.488;2023-11-21T04:46:07;6.20;1.00
13850;DHT22;6995;52.618;13.488;2023-11-21T04:48:33;6.20;1.00
13850;DHT22;6995;52.618;13.488;2023-11-21T04:50:59;6.10;1.00
13850;DHT22;6995;52.618;13.488;2023-11-21T04:53:24;6.10;1.00
13850;DHT22;6995;52.618;13.488;2023-11-21T04:55:50;6.10;1.00
13850;DHT22;6995;52.618;13.488;2023-11-21T04:58:15;6.00;1.00
13850;DHT22;6995;52.618;13.488;2023-11-21T05:00:41;6.00;1.00
13850;DHT22;6995;52.618;13.488;2023-11-21T05:03:07;6.10;1.00
13850;DHT22;6995;52.618;13.488;2023-11-21T05:05:33;6.10;1.00
13850;DHT22;6995;52.618;13.488;2023-11-21T05:08:01;6.10;1.00
13850;DHT22;6995;52.618;13.488;2023-11-21T05:10:28;6.10;1.00
13850;DHT22;6995;52.618;13.488;2023-11-21T05:12:54;6.10;1.00
13850;DHT22;6995;52.618;13.488;2023-11-21T05:15:21;6.10;1.00
13850;DHT22;6995;52.618;13.488;2023-11-21T05:17:46;6.10;1.00
13850;DHT22;6995;52.618;13.488;2023-11-21T05:20:15;6.10;1.00
13850;DHT22;6995;52.618;13.488;2023-11-21T05:22:47;6.10;1.00
13850;DHT22;6995;52.618;13.488;2023-11-21T05:25:13;6.10;1.00
13850;DHT22;6995;52.618;13.488;2023-11-21T05:27:39;6.10;1.00
13850;DHT22;6995;52.618;13.488;2023-11-21T05:30:05;6.10;1.00
13850;DHT22;6995;52.618;13.488;2023-11-21T05:32:32;6.20;1.00
13850;DHT22;6995;52.618;13.488;2023-11-21T05:34:58;6.20;1.00
13850;DHT22;6995;52.618;13.488;2023-11-21T05:37:24;6.30;1.00
13850;DHT22;6995;52.618;13.488;2023-11-21T05:39:55;6.30;1.00
13850;DHT22;6995;52.618;13.488;2023-11-21T05:42:23;6.30;1.00
13850;DHT22;6995;52.618;13.488;2023-11-21T05:44:49;6.30;1.00
13850;DHT22;6995;52.618;13.488;2023-11-21T05:47:15;6.20;1.00
13850;DHT22;6995;52.618;13.488;2023-11-21T05:49:40;6.10;1.00
13850;DHT22;6995;52.618;13.488;2023-11-21T05:52:06;6.10;1.00
13850;DHT22;6995;52.618;13.488;2023-11-21T05:54:32;6.00;1.00
13850;DHT22;6995;52.618;13.488;2023-11-21T05:56:58;6.00;1.00
13850;DHT22;6995;52.618;13.488;2023-11-21T05:59:24;5.90;1.00
13850;DHT22;6995;52.618;13.488;2023-11-21T06:01:49;5.90;1.00
13850;DHT22;6995;52.618;13.488;2023-11-21T06:04:15;5.90;1.00
13850;DHT22;6995;52.618;13.488;2023-11-21T06:06:41;5.90;1.00
13850;DHT22;6995;52.618;13.488;2023-11-21T06:09:06;5.80;1.00
13850;DHT22;6995;52.618;13.488;2023-11-21T06:11:34;5.80;1.00
13850;DHT22;6995;52.618;13.488;2023-11-21T06:14:01;5.80;1.00
13850;DHT22;6995;52.618;13.488;2023-11-21T06:16:27;5.70;1.00
13850;DHT22;6995;52.618;13.488;2023-11-21T06:18:53;5.70;1.00
13850;DHT22;6995;52.618;13.488;2023-11-21T06:21:19;5.70;1.00
13850;DHT22;6995;52.618;13.488;2023-11-21T06:23:44;5.70;1.00
13850;DHT22;6995;52.618;13.488;2023-11-21T06:26:10;5.80;1.00
13850;DHT22;6995;52.618;13.488;2023-11-21T06:28:36;5.80;1.00
13850;DHT22;6995;52.618;13.488;2023-11-21T06:31:02;5.80;1.00
13850;DHT22;6995;52.618;13.488;2023-11-21T06:33:34;5.80;1.00
13850;DHT22;6995;52.618;13.488;2023-11-21T06:36:00;5.70;1.00
13850;DHT22;6995;52.618;13.488;2023-11-21T06:38:29;5.60;1.00
13850;DHT22;6995;52.618;13.488;2023-11-21T06:40:58;5.70;1.00
13850;DHT22;6995;52.618;13.488;2023-11-21T06:43:23;5.70;1.00
13850;DHT22;6995;52.618;13.488;2023-11-21T06:45:49;5.70;1.00
13850;DHT22;6995;52.618;13.488;2023-11-21T06:48:15;5.70;1.00
13850;DHT22;6995;52.618;13.488;2023-11-21T06:50:40;5.70;1.00
13850;DHT22;6995;52.618;13.488;2023-11-21T06:53:07;5.60;1.00
13850;DHT22;6995;52.618;13.488;2023-11-21T06:55:33;5.60;1.00
13850;DHT22;6995;52.618;13.488;2023-11-21T06:58:00;5.70;1.00
13850;DHT22;6995;52.618;13.488;2023-11-21T07:00:26;5.70;1.00
13850;DHT22;6995;52.618;13.488;2023-11-21T07:02:54;5.70;1.00
13850;DHT22;6995;52.618;13.488;2023-11-21T07:05:21;5.70;1.00
13850;DHT22;6995;52.618;13.488;2023-11-21T07:07:47;5.70;1.00
13850;DHT22;6995;52.618;13.488;2023-11-21T07:10:13;5.70;1.00
13850;DHT22;6995;52.618;13.488;2023-11-21T07:12:39;5.80;1.00
13850;DHT22;6995;52.618;13.488;2023-11-21T07:15:06;5.80;1.00
13850;DHT22;6995;52.618;13.488;2023-11-21T07:17:37;5.80;1.00
13850;DHT22;6995;52.618;13.488;2023-11-21T07:20:03;5.70;1.00
13850;DHT22;6995;52.618;13.488;2023-11-21T07:22:29;5.80;1.00
13850;DHT22;6995;52.618;13.488;2023-11-21T07:24:55;5.80;1.00
13850;DHT22;6995;52.618;13.488;2023-11-21T07:27:24;5.80;1.00
13850;DHT22;6995;52.618;13.488;2023-11-21T07:29:49;5.70;1.00
13850;DHT22;6995;52.618;13.488;2023-11-21T07:32:15;5.80;1.00
13850;DHT22;6995;52.618;13.488;2023-11-21T07:34:41;5.80;1.00
13850;DHT22;6995;52.618;13.488;2023-11-21T07:37:07;5.80;1.00
13850;DHT22;6995;52.618;13.488;2023-11-21T07:39:34;5.80;1.00
13850;DHT22;6995;52.618;13.488;2023-11-21T07:42:01;5.80;1.00
13850;DHT22;6995;52.618;13.488;2023-11-21T07:44:28;5.80;1.00
13850;DHT22;6995;52.618;13.488;2023-11-21T07:46:54;5.80;1.00
13850;DHT22;6995;52.618;13.488;2023-11-21T07:49:23;5.80;1.00
13850;DHT22;6995;52.618;13.488;2023-11-21T07:51:49;5.70;1.00
13850;DHT22;6995;52.618;13.488;2023-11-21T07:54:14;5.80;1.00
13850;DHT22;6995;52.618;13.488;2023-11-21T07:56:41;5.80;1.00
13850;DHT22;6995;52.618;13.488;2023-11-21T07:59:07;5.80;1.00
13850;DHT22;6995;52.618;13.488;2023-11-21T08:01:33;5.80;1.00
13850;DHT22;6995;52.618;13.488;2023-11-21T08:03:59;5.80;1.00
13850;DHT22;6995;52.618;13.488;2023-11-21T08:06:31;5.70;1.00
13850;DHT22;6995;52.618;13.488;2023-11-21T08:08:58;5.80;1.00
13850;DHT22;6995;52.618;13.488;2023-11-21T08:11:24;5.80;1.00
13850;DHT22;6995;52.618;13.488;2023-11-21T08:13:50;5.80;1.00
13850;DHT22;6995;52.618;13.488;2023-11-21T08:16:15;5.80;1.00
13850;DHT22;6995;52.618;13.488;2023-11-21T08:18:42;5.90;1.00
13850;DHT22;6995;52.618;13.488;2023-11-21T08:21:08;5.90;1.00
13850;DHT22;6995;52.618;13.488;2023-11-21T08:23:34;6.00;1.00
13850;DHT22;6995;52.618;13.488;2023-11-21T08:26:00;6.00;1.00
13850;DHT22;6995;52.618;13.488;2023-11-21T08:28:25;6.10;1.00
13850;DHT22;6995;52.618;13.488;2023-11-21T08:30:54;6.10;1.00
13850;DHT22;6995;52.618;13.488;2023-11-21T08:33:20;6.00;1.00
13850;DHT22;6995;52.618;13.488;2023-11-21T08:35:45;5.90;1.00
13850;DHT22;6995;52.618;13.488;2023-11-21T08:38:11;5.80;1.00
13850;DHT22;6995;52.618;13.488;2023-11-21T08:40:37;5.80;1.00
13850;DHT22;6995;52.618;13.488;2023-11-21T08:43:03;5.90;1.00
13850;DHT22;6995;52.618;13.488;2023-11-21T08:45:33;5.90;1.00
13850;DHT22;6995;52.618;13.488;2023-11-21T08:48:02;5.90;1.00
13850;DHT22;6995;52.618;13.488;2023-11-21T08:50:28;6.00;1.00
13850;DHT22;6995;52.618;13.488;2023-11-21T08:52:54;6.00;1.00
13850;DHT22;6995;52.618;13.488;2023-11-21T08:55:20;6.00;1.00
13850;DHT22;6995;52.618;13.488;2023-11-21T08:57:45;6.00;1.00
13850;DHT22;6995;52.618;13.488;2023-11-21T09:00:14;5.90;1.00
13850;DHT22;6995;52.618;13.488;2023-11-21T09:02:42;5.80;1.00
13850;DHT22;6995;52.618;13.488;2023-11-21T09:05:09;5.80;1.00
13850;DHT22;6995;52.618;13.488;2023-11-21T09:07:39;5.80;1.00
13850;DHT22;6995;52.618;13.488;2023-11-21T09:10:07;5.70;1.00
13850;DHT22;6995;52.618;13.488;2023-11-21T09:12:36;5.60;1.00
13850;DHT22;6995;52.618;13.488;2023-11-21T09:15:06;5.50;1.00
13850;DHT22;6995;52.618;13.488;2023-11-21T09:17:33;5.50;1.00
13850;DHT22;6995;52.618;13.488;2023-11-21T09:19:59;5.50;1.00
13850;DHT22;6995;52.618;13.488;2023-11-21T09:22:25;5.60;1.00
13850;DHT22;6995;52.618;13.488;2023-11-21T09:24:51;5.60;1.00
13850;DHT22;6995;52.618;13.488;2023-11-21T09:27:17;5.50;1.00
13850;DHT22;6995;52.618;13.488;2023-11-21T09:29:43;5.60;1.00
13850;DHT22;6995;52.618;13.488;2023-11-21T09:32:09;5.60;1.00
13850;DHT22;6995;52.618;13.488;2023-11-21T09:34:38;5.50;1.00
13850;DHT22;6995;52.618;13.488;2023-11-21T09:37:07;5.40;1.00
13850;DHT22;6995;52.618;13.488;2023-11-21T09:39:33;5.50;1.00
13850;DHT22;6995;52.618;13.488;2023-11-21T09:42:11;5.60;1.00
13850;DHT22;6995;52.618;13.488;2023-11-21T09:47:23;5.40;1.00
13850;DHT22;6995;52.618;13.488;2023-11-21T09:49:49;5.30;1.00
13850;DHT22;6995;52.618;13.488;2023-11-21T09:52:26;5.20;1.00
13850;DHT22;6995;52.618;13.488;2023-11-21T09:54:55;5.30;1.00
13850;DHT22;6995;52.618;13.488;2023-11-21T09:57:24;5.40;1.00
13850;DHT22;6995;52.618;13.488;2023-11-21T09:59:54;5.40;1.00
13850;DHT22;6995;52.618;13.488;2023-11-21T10:02:26;5.40;1.00
13850;DHT22;6995;52.618;13.488;2023-11-21T10:04:54;5.30;1.00
13850;DHT22;6995;52.618;13.488;2023-11-21T10:07:21;5.30;1.00
13850;DHT22;6995;52.618;13.488;2023-11-21T10:09:47;5.30;1.00
13850;DHT22;6995;52.618;13.488;2023-11-21T10:12:15;5.30;1.00
13850;DHT22;6995;52.618;13.488;2023-11-21T10:14:42;5.30;1.00
13850;DHT22;6995;52.618;13.488;2023-11-21T10:17:10;5.20;1.00
13850;DHT22;6995;52.618;13.488;2023-11-21T10:19:38;5.20;1.00
13850;DHT22;6995;52.618;13.488;2023-11-21T10:22:05;5.20;1.00
13850;DHT22;6995;52.618;13.488;2023-11-21T10:24:32;5.20;1.00
13850;DHT22;6995;52.618;13.488;2023-11-21T10:26:58;5.10;1.00
13850;DHT22;6995;52.618;13.488;2023-11-21T10:29:29;5.00;1.00
13850;DHT22;6995;52.618;13.488;2023-11-21T10:31:55;5.10;1.00
13850;DHT22;6995;52.618;13.488;2023-11-21T10:34:24;5.20;1.00
13850;DHT22;6995;52.618;13.488;2023-11-21T10:36:50;5.10;1.00
13850;DHT22;6995;52.618;13.488;2023-11-21T10:39:19;5.10;1.00
13850;DHT22;6995;52.618;13.488;2023-11-21T10:41:46;5.00;1.00
13850;DHT22;6995;52.618;13.488;2023-11-21T10:44:14;5.10;1.00
13850;DHT22;6995;52.618;13.488;2023-11-21T10:46:46;5.20;1.00
13850;DHT22;6995;52.618;13.488;2023-11-21T10:49:22;5.10;1.00
13850;DHT22;6995;52.618;13.488;2023-11-21T10:51:50;5.20;1.00
13850;DHT22;6995;52.618;13.488;2023-11-21T10:54:25;5.30;1.00
13850;DHT22;6995;52.618;13.488;2023-11-21T10:56:57;5.40;1.00
13850;DHT22;6995;52.618;13.488;2023-11-21T10:59:28;5.40;1.00
13850;DHT22;6995;52.618;13.488;2023-11-21T11:01:54;5.30;1.00
13850;DHT22;6995;52.618;13.488;2023-11-21T11:04:23;5.30;1.00
13850;DHT22;6995;52.618;13.488;2023-11-21T11:07:10;5.40;1.00
13850;DHT22;6995;52.618;13.488;2023-11-21T11:09:38;5.50;1.00
13850;DHT22;6995;52.618;13.488;2023-11-21T11:12:04;5.50;1.00
13850;DHT22;6995;52.618;13.488;2023-11-21T11:14:32;5.50;1.00
13850;DHT22;6995;52.618;13.488;2023-11-21T11:16:58;5.40;1.00
13850;DHT22;6995;52.618;13.488;2023-11-21T11:19:25;5.30;1.00
13850;DHT22;6995;52.618;13.488;2023-11-21T11:22:09;5.40;1.00
13850;DHT22;6995;52.618;13.488;2023-11-21T11:27:52;5.50;1.00
13850;DHT22;6995;52.618;13.488;2023-11-21T11:33:25;5.40;1.00
13850;DHT22;6995;52.618;13.488;2023-11-21T11:36:10;5.40;1.00
13850;DHT22;6995;52.618;13.488;2023-11-21T11:38:38;5.50;1.00
13850;DHT22;6995;52.618;13.488;2023-11-21T11:41:06;5.40;1.00
13850;DHT22;6995;52.618;13.488;2023-11-21T11:43:32;5.50;1.00
13850;DHT22;6995;52.618;13.488;2023-11-21T11:45:59;5.60;1.00
13850;DHT22;6995;52.618;13.488;2023-11-21T11:48:25;5.50;1.00
13850;DHT22;6995;52.618;13.488;2023-11-21T11:51:13;5.30;1.00
13850;DHT22;6995;52.618;13.488;2023-11-21T11:53:43;5.30;1.00
13850;DHT22;6995;52.618;13.488;2023-11-21T11:56:30;5.30;1.00
13850;DHT22;6995;52.618;13.488;2023-11-21T11:58:59;5.30;1.00
13850;DHT22;6995;52.618;13.488;2023-11-21T12:01:26;5.30;1.00
13850;DHT22;6995;52.618;13.488;2023-11-21T12:06:42;5.30;1.00
13850;DHT22;6995;52.618;13.488;2023-11-21T12:09:23;5.20;1.00
13850;DHT22;6995;52.618;13.488;2023-11-21T12:11:49;5.10;1.00
13850;DHT22;6995;52.618;13.488;2023-11-21T12:14:16;5.00;1.00
13850;DHT22;6995;52.618;13.488;2023-11-21T12:16:42;5.00;1.00
13850;DHT22;6995;52.618;13.488;2023-11-21T12:19:12;5.00;1.00
13850;DHT22;6995;52.618;13.488;2023-11-21T12:21:38;5.00;1.00
13850;DHT22;6995;52.618;13.488;2023-11-21T12:24:04;4.90;1.00
13850;DHT22;6995;52.618;13.488;2023-11-21T12:26:34;4.90;68.00
13850;DHT22;6995;52.618;13.488;2023-11-21T12:29:00;5.00;99.90
13850;DHT22;6995;52.618;13.488;2023-11-21T12:31:28;4.90;48.50
13850;DHT22;6995;52.618;13.488;2023-11-21T12:33:55;4.90;99.90
13850;DHT22;6995;52.618;13.488;2023-11-21T12:36:22;4.90;99.90
13850;DHT22;6995;52.618;13.488;2023-11-21T12:38:47;4.80;99.90
13850;DHT22;6995;52.618;13.488;2023-11-21T12:41:13;4.80;99.90
13850;DHT22;6995;52.618;13.488;2023-11-21T12:43:39;4.80;98.20
13850;DHT22;6995;52.618;13.488;2023-11-21T12:46:10;4.60;54.60
13850;DHT22;6995;52.618;13.488;2023-11-21T12:48:41;4.60;81.50
13850;DHT22;6995;52.618;13.488;2023-11-21T12:51:12;4.60;99.90
13850;DHT22;6995;52.618;13.488;2023-11-21T12:53:39;4.60;99.90
13850;DHT22;6995;52.618;13.488;2023-11-21T12:56:12;4.70;96.30
13850;DHT22;6995;52.618;13.488;2023-11-21T12:58:39;4.70;99.90
13850;DHT22;6995;52.618;13.488;2023-11-21T13:01:06;4.80;99.90
13850;DHT22;6995;52.618;13.488;2023-11-21T13:03:38;4.70;1.00
13850;DHT22;6995;52.618;13.488;2023-11-21T13:06:04;4.70;1.00
13850;DHT22;6995;52.618;13.488;2023-11-21T13:08:31;4.60;1.00
13850;DHT22;6995;52.618;13.488;2023-11-21T13:10:59;4.40;1.00
13850;DHT22;6995;52.618;13.488;2023-11-21T13:13:27;4.30;1.00
13850;DHT22;6995;52.618;13.488;2023-11-21T13:15:59;4.20;1.00
13850;DHT22;6995;52.618;13.488;2023-11-21T13:18:31;4.20;1.00
13850;DHT22;6995;52.618;13.488;2023-11-21T13:20:58;4.10;1.00
13850;DHT22;6995;52.618;13.488;2023-11-21T13:23:25;4.20;1.00
13850;DHT22;6995;52.618;13.488;2023-11-21T13:25:52;4.20;1.00
13850;DHT22;6995;52.618;13.488;2023-11-21T13:28:19;4.20;1.00
13850;DHT22;6995;52.618;13.488;2023-11-21T13:30:46;4.10;1.00
13850;DHT22;6995;52.618;13.488;2023-11-21T13:33:13;4.10;3.90
13850;DHT22;6995;52.618;13.488;2023-11-21T13:35:43;4.20;1.00
13850;DHT22;6995;52.618;13.488;2023-11-21T13:38:18;4.20;21.70
13850;DHT22;6995;52.618;13.488;2023-11-21T13:43:16;4.00;1.00
13850;DHT22;6995;52.618;13.488;2023-11-21T13:45:44;4.10;15.10
13850;DHT22;6995;52.618;13.488;2023-11-21T13:48:12;4.00;1.00
13850;DHT22;6995;52.618;13.488;2023-11-21T13:51:01;4.00;55.60
13850;DHT22;6995;52.618;13.488;2023-11-21T13:53:36;4.00;25.20
13850;DHT22;6995;52.618;13.488;2023-11-21T13:56:03;4.00;1.00
13850;DHT22;6995;52.618;13.488;2023-11-21T13:58:29;4.00;1.00
13850;DHT22;6995;52.618;13.488;2023-11-21T14:01:12;3.90;1.00
13850;DHT22;6995;52.618;13.488;2023-11-21T14:03:57;3.80;1.00
13850;DHT22;6995;52.618;13.488;2023-11-21T14:06:28;3.80;1.00
13850;DHT22;6995;52.618;13.488;2023-11-21T14:09:00;3.80;1.00
13850;DHT22;6995;52.618;13.488;2023-11-21T14:11:30;3.70;1.00
13850;DHT22;6995;52.618;13.488;2023-11-21T14:13:56;3.80;1.00
13850;DHT22;6995;52.618;13.488;2023-11-21T14:16:23;3.70;1.00
13850;DHT22;6995;52.618;13.488;2023-11-21T14:18:49;3.70;1.00
13850;DHT22;6995;52.618;13.488;2023-11-21T14:21:44;3.70;1.00
13850;DHT22;6995;52.618;13.488;2023-11-21T14:24:13;3.80;1.00
13850;DHT22;6995;52.618;13.488;2023-11-21T14:26:42;3.80;1.00
13850;DHT22;6995;52.618;13.488;2023-11-21T14:29:11;3.80;1.00
13850;DHT22;6995;52.618;13.488;2023-11-21T14:31:40;3.80;1.00
13850;DHT22;6995;52.618;13.488;2023-11-21T14:34:06;3.70;1.00
13850;DHT22;6995;52.618;13.488;2023-11-21T14:36:33;3.70;1.00
13850;DHT22;6995;52.618;13.488;2023-11-21T14:38:59;3.60;1.00
13850;DHT22;6995;52.618;13.488;2023-11-21T14:41:24;3.60;1.00
13850;DHT22;6995;52.618;13.488;2023-11-21T14:43:51;3.60;1.00
13850;DHT22;6995;52.618;13.488;2023-11-21T14:46:17;3.60;1.00
13850;DHT22;6995;52.618;13.488;2023-11-21T14:48:45;3.60;1.00
13850;DHT22;6995;52.618;13.488;2023-11-21T14:51:24;3.60;1.00
13850;DHT22;6995;52.618;13.488;2023-11-21T14:53:57;3.60;1.00
13850;DHT22;6995;52.618;13.488;2023-11-21T14:56:28;3.60;1.00
13850;DHT22;6995;52.618;13.488;2023-11-21T14:59:01;3.60;1.00
13850;DHT22;6995;52.618;13.488;2023-11-21T15:01:42;3.70;1.00
13850;DHT22;6995;52.618;13.488;2023-11-21T15:04:10;3.70;1.00
13850;DHT22;6995;52.618;13.488;2023-11-21T15:06:49;3.70;1.00
13850;DHT22;6995;52.618;13.488;2023-11-21T15:09:15;3.70;1.00
13850;DHT22;6995;52.618;13.488;2023-11-21T15:11:44;3.80;1.00
13850;DHT22;6995;52.618;13.488;2023-11-21T15:14:10;3.80;1.00
13850;DHT22;6995;52.618;13.488;2023-11-21T15:16:38;3.70;1.00
13850;DHT22;6995;52.618;13.488;2023-11-21T15:19:08;3.70;1.00
13850;DHT22;6995;52.618;13.488;2023-11-21T15:21:35;3.80;1.00
13850;DHT22;6995;52.618;13.488;2023-11-21T15:24:01;3.80;1.00
13850;DHT22;6995;52.618;13.488;2023-11-21T15:26:27;3.80;1.00
13850;DHT22;6995;52.618;13.488;2023-11-21T15:28:54;3.80;1.00
13850;DHT22;6995;52.618;13.488;2023-11-21T15:31:19;3.60;1.00
13850;DHT22;6995;52.618;13.488;2023-11-21T15:33:51;3.70;1.00
13850;DHT22;6995;52.618;13.488;2023-11-21T15:36:18;3.80;1.00
13850;DHT22;6995;52.618;13.488;2023-11-21T15:38:44;3.70;1.00
13850;DHT22;6995;52.618;13.488;2023-11-21T15:41:10;3.70;1.00
13850;DHT22;6995;52.618;13.488;2023-11-21T15:43:37;3.80;1.00
13850;DHT22;6995;52.618;13.488;2023-11-21T15:46:03;3.80;1.00
13850;DHT22;6995;52.618;13.488;2023-11-21T15:48:34;3.70;1.00
13850;DHT22;6995;52.618;13.488;2023-11-21T15:51:00;3.70;1.00
13850;DHT22;6995;52.618;13.488;2023-11-21T15:53:28;3.60;1.00
13850;DHT22;6995;52.618;13.488;2023-11-21T15:55:54;3.60;1.00
13850;DHT22;6995;52.618;13.488;2023-11-21T15:58:19;3.60;1.00
13850;DHT22;6995;52.618;13.488;2023-11-21T16:00:45;3.60;1.00
13850;DHT22;6995;52.618;13.488;2023-11-21T16:03:10;3.60;1.00
13850;DHT22;6995;52.618;13.488;2023-11-21T16:05:37;3.60;1.00
13850;DHT22;6995;52.618;13.488;2023-11-21T16:08:03;3.60;1.00
13850;DHT22;6995;52.618;13.488;2023-11-21T16:10:29;3.60;1.00
13850;DHT22;6995;52.618;13.488;2023-11-21T16:12:54;3.60;1.00
13850;DHT22;6995;52.618;13.488;2023-11-21T16:15:20;3.60;1.00